sensor_id;sensor_type;location;lat;lon;timestamp;temperature;humidity
18105;DHT22;9179;50.968;3.134;2022-07-23T00:01:10;15.90;99.90
18105;DHT22;9179;50.968;3.134;2022-07-23T00:03:37;15.90;99.90
18105;DHT22;9179;50.968;3.134;2022-07-23T00:06:06;15.90;99.90
18105;DHT22;9179;50.968;3.134;2022-07-23T00:08:32;16.00;99.90
18105;DHT22;9179;50.968;3.134;2022-07-23T00:11:00;16.00;99.90
18105;DHT22;9179;50.968;3.134;2022-07-23T00:13:27;16.00;99.90
18105;DHT22;9179;50.968;3.134;2022-07-23T00:15:54;16.00;99.90
18105;DHT22;9179;50.968;3.134;2022-07-23T00:18:22;16.00;99.90
18105;DHT22;9179;50.968;3.134;2022-07-23T00:20:49;16.00;99.90
18105;DHT22;9179;50.968;3.134;2022-07-23T00:23:18;15.90;99.90
18105;DHT22;9179;50.968;3.134;2022-07-23T00:25:44;15.90;99.90
18105;DHT22;9179;50.968;3.134;2022-07-23T00:28:12;15.80;99.90
18105;DHT22;9179;50.968;3.134;2022-07-23T00:30:39;15.80;99.90
18105;DHT22;9179;50.968;3.134;2022-07-23T00:33:07;15.70;99.90
18105;DHT22;9179;50.968;3.134;2022-07-23T00:35:35;15.70;99.90
18105;DHT22;9179;50.968;3.134;2022-07-23T00:38:03;15.70;99.90
18105;DHT22;9179;50.968;3.134;2022-07-23T00:40:32;15.70;99.90
18105;DHT22;9179;50.968;3.134;2022-07-23T00:42:59;15.60;99.90
18105;DHT22;9179;50.968;3.134;2022-07-23T00:45:27;15.70;99.90
18105;DHT22;9179;50.968;3.134;2022-07-23T00:47:54;15.70;99.90
18105;DHT22;9179;50.968;3.134;2022-07-23T00:50:21;15.60;99.90
18105;DHT22;9179;50.968;3.134;2022-07-23T00:52:48;15.60;99.90
18105;DHT22;9179;50.968;3.134;2022-07-23T00:55:15;15.60;99.90
18105;DHT22;9179;50.968;3.134;2022-07-23T00:57:43;15.50;99.90
18105;DHT22;9179;50.968;3.134;2022-07-23T01:00:13;15.50;99.90
18105;DHT22;9179;50.968;3.134;2022-07-23T01:02:41;15.50;99.90
18105;DHT22;9179;50.968;3.134;2022-07-23T01:05:09;15.50;99.90
18105;DHT22;9179;50.968;3.134;2022-07-23T01:07:36;15.50;99.90
18105;DHT22;9179;50.968;3.134;2022-07-23T01:10:04;15.40;99.90
18105;DHT22;9179;50.968;3.134;2022-07-23T01:12:53;15.40;99.90
18105;DHT22;9179;50.968;3.134;2022-07-23T01:15:20;15.40;99.90
18105;DHT22;9179;50.968;3.134;2022-07-23T01:17:47;15.40;99.90
18105;DHT22;9179;50.968;3.134;2022-07-23T01:20:14;15.40;99.90
18105;DHT22;9179;50.968;3.134;2022-07-23T01:22:42;15.40;99.90
18105;DHT22;9179;50.968;3.134;2022-07-23T01:25:09;15.40;99.90
18105;DHT22;9179;50.968;3.134;2022-07-23T01:27:36;15.50;99.90
18105;DHT22;9179;50.968;3.134;2022-07-23T01:30:05;15.60;99.90
18105;DHT22;9179;50.968;3.134;2022-07-23T01:32:32;15.60;99.90
18105;DHT22;9179;50.968;3.134;2022-07-23T01:34:58;15.50;99.90
18105;DHT22;9179;50.968;3.134;2022-07-23T01:37:25;15.40;99.90
18105;DHT22;9179;50.968;3.134;2022-07-23T01:39:54;15.30;99.90
18105;DHT22;9179;50.968;3.134;2022-07-23T01:42:20;15.30;99.90
18105;DHT22;9179;50.968;3.134;2022-07-23T01:44:47;15.40;99.90
18105;DHT22;9179;50.968;3.134;2022-07-23T01:47:14;15.40;99.90
18105;DHT22;9179;50.968;3.134;2022-07-23T01:49:41;15.50;99.90
18105;DHT22;9179;50.968;3.134;2022-07-23T01:52:08;15.50;99.90
18105;DHT22;9179;50.968;3.134;2022-07-23T01:54:38;15.60;99.90
18105;DHT22;9179;50.968;3.134;2022-07-23T01:57:06;15.60;99.90
18105;DHT22;9179;50.968;3.134;2022-07-23T01:59:34;15.50;99.90
18105;DHT22;9179;50.968;3.134;2022-07-23T02:02:00;15.50;99.90
18105;DHT22;9179;50.968;3.134;2022-07-23T02:04:29;15.50;99.90
18105;DHT22;9179;50.968;3.134;2022-07-23T02:06:56;15.50;99.90
18105;DHT22;9179;50.968;3.134;2022-07-23T02:09:22;15.40;99.90
18105;DHT22;9179;50.968;3.134;2022-07-23T02:11:49;15.30;99.90
18105;DHT22;9179;50.968;3.134;2022-07-23T02:14:18;15.30;99.90
18105;DHT22;9179;50.968;3.134;2022-07-23T02:16:44;15.30;99.90
18105;DHT22;9179;50.968;3.134;2022-07-23T02:19:11;15.30;99.90
18105;DHT22;9179;50.968;3.134;2022-07-23T02:21:38;15.30;99.90
18105;DHT22;9179;50.968;3.134;2022-07-23T02:24:05;15.30;99.90
18105;DHT22;9179;50.968;3.134;2022-07-23T02:26:32;15.30;99.90
18105;DHT22;9179;50.968;3.134;2022-07-23T02:29:00;15.20;99.90
18105;DHT22;9179;50.968;3.134;2022-07-23T02:31:29;15.30;99.90
18105;DHT22;9179;50.968;3.134;2022-07-23T02:33:55;15.30;99.90
18105;DHT22;9179;50.968;3.134;2022-07-23T02:36:22;15.30;99.90
18105;DHT22;9179;50.968;3.134;2022-07-23T02:38:49;15.30;99.90
18105;DHT22;9179;50.968;3.134;2022-07-23T02:41:16;15.30;99.90
18105;DHT22;9179;50.968;3.134;2022-07-23T02:43:43;15.40;99.90
18105;DHT22;9179;50.968;3.134;2022-07-23T02:46:10;15.30;99.90
18105;DHT22;9179;50.968;3.134;2022-07-23T02:48:38;15.30;99.90
18105;DHT22;9179;50.968;3.134;2022-07-23T02:51:05;15.20;99.90
18105;DHT22;9179;50.968;3.134;2022-07-23T02:53:32;15.20;99.90
18105;DHT22;9179;50.968;3.134;2022-07-23T02:55:59;15.20;99.90
18105;DHT22;9179;50.968;3.134;2022-07-23T02:58:26;15.20;99.90
18105;DHT22;9179;50.968;3.134;2022-07-23T03:00:52;15.20;99.90
18105;DHT22;9179;50.968;3.134;2022-07-23T03:03:19;15.20;99.90
18105;DHT22;9179;50.968;3.134;2022-07-23T03:05:48;15.20;99.90
18105;DHT22;9179;50.968;3.134;2022-07-23T03:08:15;15.30;99.90
18105;DHT22;9179;50.968;3.134;2022-07-23T03:10:42;15.30;99.90
18105;DHT22;9179;50.968;3.134;2022-07-23T03:13:08;15.40;99.90
18105;DHT22;9179;50.968;3.134;2022-07-23T03:15:35;15.40;99.90
18105;DHT22;9179;50.968;3.134;2022-07-23T03:18:02;15.40;99.90
18105;DHT22;9179;50.968;3.134;2022-07-23T03:20:29;15.40;99.90
18105;DHT22;9179;50.968;3.134;2022-07-23T03:22:57;15.40;99.90
18105;DHT22;9179;50.968;3.134;2022-07-23T03:25:24;15.40;99.90
18105;DHT22;9179;50.968;3.134;2022-07-23T03:27:51;15.30;99.90
18105;DHT22;9179;50.968;3.134;2022-07-23T03:30:18;15.20;99.90
18105;DHT22;9179;50.968;3.134;2022-07-23T03:32:45;15.20;99.90
18105;DHT22;9179;50.968;3.134;2022-07-23T03:35:12;15.10;99.90
18105;DHT22;9179;50.968;3.134;2022-07-23T03:37:39;15.10;99.90
18105;DHT22;9179;50.968;3.134;2022-07-23T03:40:08;15.10;99.90
18105;DHT22;9179;50.968;3.134;2022-07-23T03:42:35;15.10;99.90
18105;DHT22;9179;50.968;3.134;2022-07-23T03:45:03;15.10;99.90
18105;DHT22;9179;50.968;3.134;2022-07-23T03:47:30;15.00;99.90
18105;DHT22;9179;50.968;3.134;2022-07-23T03:49:57;15.10;99.90
18105;DHT22;9179;50.968;3.134;2022-07-23T03:52:26;15.20;99.90
18105;DHT22;9179;50.968;3.134;2022-07-23T03:55:08;15.30;99.90
18105;DHT22;9179;50.968;3.134;2022-07-23T03:57:35;15.40;99.90
18105;DHT22;9179;50.968;3.134;2022-07-23T04:00:05;15.60;99.90
18105;DHT22;9179;50.968;3.134;2022-07-23T04:02:34;15.70;99.90
18105;DHT22;9179;50.968;3.134;2022-07-23T04:05:01;15.80;99.90
18105;DHT22;9179;50.968;3.134;2022-07-23T04:07:27;15.90;99.90
18105;DHT22;9179;50.968;3.134;2022-07-23T04:09:54;16.00;99.90
18105;DHT22;9179;50.968;3.134;2022-07-23T04:12:23;16.00;99.90
18105;DHT22;9179;50.968;3.134;2022-07-23T04:14:50;15.90;99.90
18105;DHT22;9179;50.968;3.134;2022-07-23T04:17:17;15.70;99.90
18105;DHT22;9179;50.968;3.134;2022-07-23T04:19:43;15.60;99.90
18105;DHT22;9179;50.968;3.134;2022-07-23T04:22:11;15.70;99.90
18105;DHT22;9179;50.968;3.134;2022-07-23T04:24:38;15.80;99.90
18105;DHT22;9179;50.968;3.134;2022-07-23T04:27:06;16.00;99.90
18105;DHT22;9179;50.968;3.134;2022-07-23T04:29:34;16.10;99.90
18105;DHT22;9179;50.968;3.134;2022-07-23T04:32:01;16.30;99.90
18105;DHT22;9179;50.968;3.134;2022-07-23T04:34:28;16.40;99.90
18105;DHT22;9179;50.968;3.134;2022-07-23T04:36:55;16.30;99.90
18105;DHT22;9179;50.968;3.134;2022-07-23T04:39:23;16.30;99.90
18105;DHT22;9179;50.968;3.134;2022-07-23T04:41:50;16.40;99.90
18105;DHT22;9179;50.968;3.134;2022-07-23T04:44:17;16.60;99.90
18105;DHT22;9179;50.968;3.134;2022-07-23T04:46:45;16.80;99.90
18105;DHT22;9179;50.968;3.134;2022-07-23T04:49:12;16.90;99.90
18105;DHT22;9179;50.968;3.134;2022-07-23T04:51:39;17.00;99.90
18105;DHT22;9179;50.968;3.134;2022-07-23T04:54:06;17.20;99.90
18105;DHT22;9179;50.968;3.134;2022-07-23T04:56:33;17.40;99.90
18105;DHT22;9179;50.968;3.134;2022-07-23T04:59:00;17.60;99.90
18105;DHT22;9179;50.968;3.134;2022-07-23T05:01:27;17.90;99.90
18105;DHT22;9179;50.968;3.134;2022-07-23T05:03:55;18.10;99.90
18105;DHT22;9179;50.968;3.134;2022-07-23T05:06:22;18.40;99.90
18105;DHT22;9179;50.968;3.134;2022-07-23T05:08:49;18.50;99.90
18105;DHT22;9179;50.968;3.134;2022-07-23T05:11:16;18.60;99.90
18105;DHT22;9179;50.968;3.134;2022-07-23T05:13:43;18.70;99.90
18105;DHT22;9179;50.968;3.134;2022-07-23T05:16:11;18.80;99.90
18105;DHT22;9179;50.968;3.134;2022-07-23T05:18:38;18.60;99.90
18105;DHT22;9179;50.968;3.134;2022-07-23T05:21:06;18.40;99.90
18105;DHT22;9179;50.968;3.134;2022-07-23T05:23:33;18.50;99.90
18105;DHT22;9179;50.968;3.134;2022-07-23T05:26:00;19.10;99.90
18105;DHT22;9179;50.968;3.134;2022-07-23T05:28:27;19.70;99.90
18105;DHT22;9179;50.968;3.134;2022-07-23T05:30:54;20.00;99.90
18105;DHT22;9179;50.968;3.134;2022-07-23T05:33:21;20.50;99.90
18105;DHT22;9179;50.968;3.134;2022-07-23T05:35:48;20.90;99.90
18105;DHT22;9179;50.968;3.134;2022-07-23T05:38:16;21.30;99.90
18105;DHT22;9179;50.968;3.134;2022-07-23T05:40:43;21.70;99.90
18105;DHT22;9179;50.968;3.134;2022-07-23T05:43:10;22.00;99.90
18105;DHT22;9179;50.968;3.134;2022-07-23T05:45:37;22.30;99.90
18105;DHT22;9179;50.968;3.134;2022-07-23T05:48:04;22.30;99.90
18105;DHT22;9179;50.968;3.134;2022-07-23T05:50:31;22.70;99.90
18105;DHT22;9179;50.968;3.134;2022-07-23T05:52:58;23.70;99.90
18105;DHT22;9179;50.968;3.134;2022-07-23T05:55:27;24.30;99.90
18105;DHT22;9179;50.968;3.134;2022-07-23T05:57:54;25.10;99.90
18105;DHT22;9179;50.968;3.134;2022-07-23T06:00:21;25.80;99.90
18105;DHT22;9179;50.968;3.134;2022-07-23T06:02:48;26.10;99.90
18105;DHT22;9179;50.968;3.134;2022-07-23T06:05:15;26.00;99.90
18105;DHT22;9179;50.968;3.134;2022-07-23T06:07:42;25.30;99.90
18105;DHT22;9179;50.968;3.134;2022-07-23T06:10:09;24.70;99.90
18105;DHT22;9179;50.968;3.134;2022-07-23T06:12:37;24.30;99.90
18105;DHT22;9179;50.968;3.134;2022-07-23T06:15:05;24.00;99.90
18105;DHT22;9179;50.968;3.134;2022-07-23T06:17:32;23.60;99.90
18105;DHT22;9179;50.968;3.134;2022-07-23T06:19:59;23.50;99.90
18105;DHT22;9179;50.968;3.134;2022-07-23T06:22:26;23.10;99.90
18105;DHT22;9179;50.968;3.134;2022-07-23T06:24:53;22.90;99.90
18105;DHT22;9179;50.968;3.134;2022-07-23T06:27:20;23.00;99.90
18105;DHT22;9179;50.968;3.134;2022-07-23T06:29:48;23.10;99.90
18105;DHT22;9179;50.968;3.134;2022-07-23T06:32:15;23.60;99.90
18105;DHT22;9179;50.968;3.134;2022-07-23T06:34:42;24.20;99.90
18105;DHT22;9179;50.968;3.134;2022-07-23T06:37:08;24.90;99.90
18105;DHT22;9179;50.968;3.134;2022-07-23T06:39:35;25.30;99.90
18105;DHT22;9179;50.968;3.134;2022-07-23T06:42:02;25.20;99.90
18105;DHT22;9179;50.968;3.134;2022-07-23T06:44:29;24.70;99.90
18105;DHT22;9179;50.968;3.134;2022-07-23T06:46:58;24.10;99.90
18105;DHT22;9179;50.968;3.134;2022-07-23T06:49:24;23.80;99.90
18105;DHT22;9179;50.968;3.134;2022-07-23T06:51:51;23.70;99.90
18105;DHT22;9179;50.968;3.134;2022-07-23T06:54:18;23.40;99.90
18105;DHT22;9179;50.968;3.134;2022-07-23T06:56:45;23.60;99.90
18105;DHT22;9179;50.968;3.134;2022-07-23T06:59:12;23.90;99.90
18105;DHT22;9179;50.968;3.134;2022-07-23T07:01:39;23.90;99.90
18105;DHT22;9179;50.968;3.134;2022-07-23T07:04:07;24.00;99.90
18105;DHT22;9179;50.968;3.134;2022-07-23T07:06:34;24.00;99.90
18105;DHT22;9179;50.968;3.134;2022-07-23T07:09:01;24.20;99.90
18105;DHT22;9179;50.968;3.134;2022-07-23T07:11:28;24.50;99.90
18105;DHT22;9179;50.968;3.134;2022-07-23T07:13:55;25.00;99.90
18105;DHT22;9179;50.968;3.134;2022-07-23T07:16:22;25.80;99.90
18105;DHT22;9179;50.968;3.134;2022-07-23T07:18:49;26.60;99.90
18105;DHT22;9179;50.968;3.134;2022-07-23T07:21:17;26.80;99.90
18105;DHT22;9179;50.968;3.134;2022-07-23T07:23:44;26.90;99.90
18105;DHT22;9179;50.968;3.134;2022-07-23T07:26:11;26.80;99.90
18105;DHT22;9179;50.968;3.134;2022-07-23T07:28:37;26.40;99.90
18105;DHT22;9179;50.968;3.134;2022-07-23T07:31:04;25.90;99.90
18105;DHT22;9179;50.968;3.134;2022-07-23T07:33:31;25.90;99.90
18105;DHT22;9179;50.968;3.134;2022-07-23T07:35:58;25.90;99.90
18105;DHT22;9179;50.968;3.134;2022-07-23T07:38:27;25.90;99.90
18105;DHT22;9179;50.968;3.134;2022-07-23T07:40:54;25.90;99.90
18105;DHT22;9179;50.968;3.134;2022-07-23T07:43:21;26.20;99.90
18105;DHT22;9179;50.968;3.134;2022-07-23T07:45:48;26.70;99.90
18105;DHT22;9179;50.968;3.134;2022-07-23T07:48:15;27.00;99.90
18105;DHT22;9179;50.968;3.134;2022-07-23T07:50:42;27.20;99.90
18105;DHT22;9179;50.968;3.134;2022-07-23T07:53:09;27.70;99.90
18105;DHT22;9179;50.968;3.134;2022-07-23T07:55:37;27.70;99.90
18105;DHT22;9179;50.968;3.134;2022-07-23T07:58:04;27.50;99.90
18105;DHT22;9179;50.968;3.134;2022-07-23T08:00:31;27.70;99.90
18105;DHT22;9179;50.968;3.134;2022-07-23T08:02:59;27.70;99.90
18105;DHT22;9179;50.968;3.134;2022-07-23T08:05:27;28.00;99.90
18105;DHT22;9179;50.968;3.134;2022-07-23T08:07:55;28.40;99.90
18105;DHT22;9179;50.968;3.134;2022-07-23T08:10:22;28.90;99.80
18105;DHT22;9179;50.968;3.134;2022-07-23T08:12:53;30.00;99.30
18105;DHT22;9179;50.968;3.134;2022-07-23T08:15:22;31.00;96.90
18105;DHT22;9179;50.968;3.134;2022-07-23T08:17:49;31.60;95.70
18105;DHT22;9179;50.968;3.134;2022-07-23T08:20:20;32.10;94.00
18105;DHT22;9179;50.968;3.134;2022-07-23T08:22:49;32.80;91.70
18105;DHT22;9179;50.968;3.134;2022-07-23T08:25:20;33.80;90.00
18105;DHT22;9179;50.968;3.134;2022-07-23T08:27:47;33.70;86.60
18105;DHT22;9179;50.968;3.134;2022-07-23T08:30:16;33.50;85.00
18105;DHT22;9179;50.968;3.134;2022-07-23T08:32:55;33.70;84.20
18105;DHT22;9179;50.968;3.134;2022-07-23T08:35:25;33.80;80.50
18105;DHT22;9179;50.968;3.134;2022-07-23T08:37:52;34.10;79.50
18105;DHT22;9179;50.968;3.134;2022-07-23T08:40:19;34.40;78.40
18105;DHT22;9179;50.968;3.134;2022-07-23T08:42:48;34.90;75.00
18105;DHT22;9179;50.968;3.134;2022-07-23T08:45:18;35.00;73.80
18105;DHT22;9179;50.968;3.134;2022-07-23T08:47:49;35.10;72.30
18105;DHT22;9179;50.968;3.134;2022-07-23T08:50:16;35.20;70.80
18105;DHT22;9179;50.968;3.134;2022-07-23T08:52:43;35.80;70.80
18105;DHT22;9179;50.968;3.134;2022-07-23T08:55:10;36.50;66.70
18105;DHT22;9179;50.968;3.134;2022-07-23T08:57:37;36.00;65.40
18105;DHT22;9179;50.968;3.134;2022-07-23T09:00:05;35.00;67.50
18105;DHT22;9179;50.968;3.134;2022-07-23T09:02:39;34.00;68.20
18105;DHT22;9179;50.968;3.134;2022-07-23T09:05:07;34.10;69.20
18105;DHT22;9179;50.968;3.134;2022-07-23T09:07:34;34.80;67.90
18105;DHT22;9179;50.968;3.134;2022-07-23T09:10:06;35.40;66.00
18105;DHT22;9179;50.968;3.134;2022-07-23T09:12:34;35.50;64.60
18105;DHT22;9179;50.968;3.134;2022-07-23T09:15:06;35.50;64.40
18105;DHT22;9179;50.968;3.134;2022-07-23T09:17:41;35.00;63.90
18105;DHT22;9179;50.968;3.134;2022-07-23T09:20:10;33.90;65.40
18105;DHT22;9179;50.968;3.134;2022-07-23T09:22:37;33.90;66.80
18105;DHT22;9179;50.968;3.134;2022-07-23T09:25:10;34.80;66.50
18105;DHT22;9179;50.968;3.134;2022-07-23T09:27:54;35.50;66.00
18105;DHT22;9179;50.968;3.134;2022-07-23T09:30:22;35.80;63.50
18105;DHT22;9179;50.968;3.134;2022-07-23T09:33:10;36.20;62.60
18105;DHT22;9179;50.968;3.134;2022-07-23T09:35:48;35.40;61.80
18105;DHT22;9179;50.968;3.134;2022-07-23T09:38:16;35.20;62.50
18105;DHT22;9179;50.968;3.134;2022-07-23T09:40:44;35.60;62.20
18105;DHT22;9179;50.968;3.134;2022-07-23T09:43:11;35.80;61.00
18105;DHT22;9179;50.968;3.134;2022-07-23T09:45:38;36.00;60.80
18105;DHT22;9179;50.968;3.134;2022-07-23T09:48:14;36.30;60.60
18105;DHT22;9179;50.968;3.134;2022-07-23T09:50:43;36.40;58.90
18105;DHT22;9179;50.968;3.134;2022-07-23T09:53:10;36.30;59.00
18105;DHT22;9179;50.968;3.134;2022-07-23T09:55:51;36.50;59.10
18105;DHT22;9179;50.968;3.134;2022-07-23T09:58:21;35.80;58.70
18105;DHT22;9179;50.968;3.134;2022-07-23T10:00:51;35.60;59.10
18105;DHT22;9179;50.968;3.134;2022-07-23T10:03:20;36.00;59.50
18105;DHT22;9179;50.968;3.134;2022-07-23T10:05:48;36.60;59.00
18105;DHT22;9179;50.968;3.134;2022-07-23T10:08:18;37.00;57.50
18105;DHT22;9179;50.968;3.134;2022-07-23T10:10:46;36.60;57.80
18105;DHT22;9179;50.968;3.134;2022-07-23T10:13:14;36.70;57.80
18105;DHT22;9179;50.968;3.134;2022-07-23T10:16:01;36.90;57.40
18105;DHT22;9179;50.968;3.134;2022-07-23T10:18:30;36.70;58.60
18105;DHT22;9179;50.968;3.134;2022-07-23T10:20:57;36.00;57.50
18105;DHT22;9179;50.968;3.134;2022-07-23T10:23:31;34.60;59.10
18105;DHT22;9179;50.968;3.134;2022-07-23T10:26:08;35.40;60.00
18105;DHT22;9179;50.968;3.134;2022-07-23T10:28:55;35.90;58.70
18105;DHT22;9179;50.968;3.134;2022-07-23T10:31:33;36.10;58.40
18105;DHT22;9179;50.968;3.134;2022-07-23T10:34:11;36.90;57.40
18105;DHT22;9179;50.968;3.134;2022-07-23T10:36:47;37.60;56.60
18105;DHT22;9179;50.968;3.134;2022-07-23T10:39:19;37.60;55.60
18105;DHT22;9179;50.968;3.134;2022-07-23T10:41:46;37.10;56.50
18105;DHT22;9179;50.968;3.134;2022-07-23T10:44:14;36.90;56.80
18105;DHT22;9179;50.968;3.134;2022-07-23T10:46:55;37.40;56.30
18105;DHT22;9179;50.968;3.134;2022-07-23T10:49:41;37.90;54.80
18105;DHT22;9179;50.968;3.134;2022-07-23T10:52:24;37.90;55.00
18105;DHT22;9179;50.968;3.134;2022-07-23T10:54:53;38.00;54.80
18105;DHT22;9179;50.968;3.134;2022-07-23T10:57:22;38.30;54.30
18105;DHT22;9179;50.968;3.134;2022-07-23T11:00:21;37.80;53.60
18105;DHT22;9179;50.968;3.134;2022-07-23T11:02:50;37.10;54.00
18105;DHT22;9179;50.968;3.134;2022-07-23T11:05:21;36.30;55.70
18105;DHT22;9179;50.968;3.134;2022-07-23T11:08:14;36.70;55.80
18105;DHT22;9179;50.968;3.134;2022-07-23T11:10:44;37.50;55.80
18105;DHT22;9179;50.968;3.134;2022-07-23T11:13:45;38.00;54.40
18105;DHT22;9179;50.968;3.134;2022-07-23T11:16:46;38.30;54.20
18105;DHT22;9179;50.968;3.134;2022-07-23T11:19:13;38.50;54.00
18105;DHT22;9179;50.968;3.134;2022-07-23T11:21:51;39.10;54.30
18105;DHT22;9179;50.968;3.134;2022-07-23T11:24:20;40.70;53.20
18105;DHT22;9179;50.968;3.134;2022-07-23T11:27:02;41.30;50.90
18105;DHT22;9179;50.968;3.134;2022-07-23T11:29:45;41.10;50.40
18105;DHT22;9179;50.968;3.134;2022-07-23T11:32:36;39.00;50.70
18105;DHT22;9179;50.968;3.134;2022-07-23T11:35:22;37.00;52.60
18105;DHT22;9179;50.968;3.134;2022-07-23T11:37:51;36.60;54.00
18105;DHT22;9179;50.968;3.134;2022-07-23T11:40:24;35.50;55.00
18105;DHT22;9179;50.968;3.134;2022-07-23T11:42:57;36.00;55.50
18105;DHT22;9179;50.968;3.134;2022-07-23T11:45:30;36.80;55.20
18105;DHT22;9179;50.968;3.134;2022-07-23T11:47:57;37.70;54.40
18105;DHT22;9179;50.968;3.134;2022-07-23T11:50:24;38.60;53.20
18105;DHT22;9179;50.968;3.134;2022-07-23T11:52:53;39.30;52.50
18105;DHT22;9179;50.968;3.134;2022-07-23T11:55:20;39.50;52.00
18105;DHT22;9179;50.968;3.134;2022-07-23T11:57:48;38.80;51.70
18105;DHT22;9179;50.968;3.134;2022-07-23T12:00:18;37.50;52.80
18105;DHT22;9179;50.968;3.134;2022-07-23T12:02:47;36.70;53.20
18105;DHT22;9179;50.968;3.134;2022-07-23T12:05:16;36.50;54.30
18105;DHT22;9179;50.968;3.134;2022-07-23T12:07:44;36.90;54.60
18105;DHT22;9179;50.968;3.134;2022-07-23T12:10:15;37.80;53.60
18105;DHT22;9179;50.968;3.134;2022-07-23T12:12:44;38.00;53.30
18105;DHT22;9179;50.968;3.134;2022-07-23T12:15:12;38.00;52.80
18105;DHT22;9179;50.968;3.134;2022-07-23T12:17:41;38.70;52.80
18105;DHT22;9179;50.968;3.134;2022-07-23T12:20:13;38.50;51.70
18105;DHT22;9179;50.968;3.134;2022-07-23T12:22:41;37.60;52.10
18105;DHT22;9179;50.968;3.134;2022-07-23T12:25:13;37.50;53.20
18105;DHT22;9179;50.968;3.134;2022-07-23T12:27:41;38.20;53.30
18105;DHT22;9179;50.968;3.134;2022-07-23T12:30:22;37.70;52.40
18105;DHT22;9179;50.968;3.134;2022-07-23T12:32:51;36.30;54.00
18105;DHT22;9179;50.968;3.134;2022-07-23T12:35:19;35.50;55.40
18105;DHT22;9179;50.968;3.134;2022-07-23T12:37:49;36.00;55.10
18105;DHT22;9179;50.968;3.134;2022-07-23T12:40:27;36.60;55.00
18105;DHT22;9179;50.968;3.134;2022-07-23T12:42:56;35.70;55.50
18105;DHT22;9179;50.968;3.134;2022-07-23T12:45:24;35.90;55.20
18105;DHT22;9179;50.968;3.134;2022-07-23T12:47:53;34.70;55.60
18105;DHT22;9179;50.968;3.134;2022-07-23T12:50:39;34.20;56.60
18105;DHT22;9179;50.968;3.134;2022-07-23T12:53:09;35.50;56.80
18105;DHT22;9179;50.968;3.134;2022-07-23T12:55:38;36.90;55.60
18105;DHT22;9179;50.968;3.134;2022-07-23T12:58:14;37.90;54.00
18105;DHT22;9179;50.968;3.134;2022-07-23T13:01:03;38.60;53.50
18105;DHT22;9179;50.968;3.134;2022-07-23T13:03:33;38.60;52.90
18105;DHT22;9179;50.968;3.134;2022-07-23T13:06:01;37.90;53.00
18105;DHT22;9179;50.968;3.134;2022-07-23T13:08:31;37.80;53.70
18105;DHT22;9179;50.968;3.134;2022-07-23T13:11:01;38.70;52.50
18105;DHT22;9179;50.968;3.134;2022-07-23T13:13:30;39.90;51.80
18105;DHT22;9179;50.968;3.134;2022-07-23T13:15:58;40.90;51.60
18105;DHT22;9179;50.968;3.134;2022-07-23T13:18:25;40.90;50.70
18105;DHT22;9179;50.968;3.134;2022-07-23T13:20:52;40.60;50.10
18105;DHT22;9179;50.968;3.134;2022-07-23T13:23:20;39.40;50.60
18105;DHT22;9179;50.968;3.134;2022-07-23T13:25:47;39.50;51.00
18105;DHT22;9179;50.968;3.134;2022-07-23T13:28:17;39.60;51.00
18105;DHT22;9179;50.968;3.134;2022-07-23T13:30:45;39.90;50.20
18105;DHT22;9179;50.968;3.134;2022-07-23T13:33:15;38.90;50.80
18105;DHT22;9179;50.968;3.134;2022-07-23T13:35:42;38.50;51.10
18105;DHT22;9179;50.968;3.134;2022-07-23T13:38:09;37.60;51.90
18105;DHT22;9179;50.968;3.134;2022-07-23T13:40:38;36.50;52.90
18105;DHT22;9179;50.968;3.134;2022-07-23T13:43:05;36.00;53.70
18105;DHT22;9179;50.968;3.134;2022-07-23T13:45:34;35.50;54.30
18105;DHT22;9179;50.968;3.134;2022-07-23T13:48:01;35.30;54.70
18105;DHT22;9179;50.968;3.134;2022-07-23T13:50:29;35.30;55.30
18105;DHT22;9179;50.968;3.134;2022-07-23T13:52:56;36.10;55.20
18105;DHT22;9179;50.968;3.134;2022-07-23T13:55:23;36.90;54.30
18105;DHT22;9179;50.968;3.134;2022-07-23T13:57:49;36.70;54.30
18105;DHT22;9179;50.968;3.134;2022-07-23T14:00:16;37.80;53.70
18105;DHT22;9179;50.968;3.134;2022-07-23T14:02:45;38.60;52.40
18105;DHT22;9179;50.968;3.134;2022-07-23T14:05:12;38.20;52.60
18105;DHT22;9179;50.968;3.134;2022-07-23T14:07:40;38.20;53.00
18105;DHT22;9179;50.968;3.134;2022-07-23T14:10:09;39.00;52.40
18105;DHT22;9179;50.968;3.134;2022-07-23T14:12:36;39.70;51.50
18105;DHT22;9179;50.968;3.134;2022-07-23T14:15:05;39.80;51.80
18105;DHT22;9179;50.968;3.134;2022-07-23T14:17:33;38.80;51.00
18105;DHT22;9179;50.968;3.134;2022-07-23T14:20:02;37.20;52.10
18105;DHT22;9179;50.968;3.134;2022-07-23T14:22:29;36.70;53.40
18105;DHT22;9179;50.968;3.134;2022-07-23T14:24:56;36.80;53.90
18105;DHT22;9179;50.968;3.134;2022-07-23T14:27:24;38.10;53.70
18105;DHT22;9179;50.968;3.134;2022-07-23T14:29:51;39.50;52.00
18105;DHT22;9179;50.968;3.134;2022-07-23T14:32:18;39.40;51.00
18105;DHT22;9179;50.968;3.134;2022-07-23T14:34:45;39.70;50.80
18105;DHT22;9179;50.968;3.134;2022-07-23T14:37:14;38.40;50.70
18105;DHT22;9179;50.968;3.134;2022-07-23T14:39:42;37.10;52.10
18105;DHT22;9179;50.968;3.134;2022-07-23T14:42:10;37.20;52.50
18105;DHT22;9179;50.968;3.134;2022-07-23T14:44:37;36.50;52.80
18105;DHT22;9179;50.968;3.134;2022-07-23T14:47:04;37.20;53.10
18105;DHT22;9179;50.968;3.134;2022-07-23T14:49:32;38.50;52.70
18105;DHT22;9179;50.968;3.134;2022-07-23T14:52:00;39.30;51.10
18105;DHT22;9179;50.968;3.134;2022-07-23T14:54:28;39.80;50.20
18105;DHT22;9179;50.968;3.134;2022-07-23T14:56:57;38.40;50.40
18105;DHT22;9179;50.968;3.134;2022-07-23T14:59:24;37.80;51.70
18105;DHT22;9179;50.968;3.134;2022-07-23T15:01:52;38.70;51.70
18105;DHT22;9179;50.968;3.134;2022-07-23T15:04:19;38.10;51.30
18105;DHT22;9179;50.968;3.134;2022-07-23T15:06:46;36.40;52.60
18105;DHT22;9179;50.968;3.134;2022-07-23T15:09:13;35.40;53.60
18105;DHT22;9179;50.968;3.134;2022-07-23T15:11:42;35.60;54.10
18105;DHT22;9179;50.968;3.134;2022-07-23T15:14:09;37.30;53.00
18105;DHT22;9179;50.968;3.134;2022-07-23T15:16:36;38.60;52.00
18105;DHT22;9179;50.968;3.134;2022-07-23T15:19:03;39.30;51.00
18105;DHT22;9179;50.968;3.134;2022-07-23T15:21:31;39.90;50.30
18105;DHT22;9179;50.968;3.134;2022-07-23T15:23:58;38.70;50.40
18105;DHT22;9179;50.968;3.134;2022-07-23T15:26:25;37.10;51.90
18105;DHT22;9179;50.968;3.134;2022-07-23T15:28:53;37.00;52.20
18105;DHT22;9179;50.968;3.134;2022-07-23T15:31:21;35.60;53.10
18105;DHT22;9179;50.968;3.134;2022-07-23T15:33:48;35.20;54.40
18105;DHT22;9179;50.968;3.134;2022-07-23T15:36:17;36.20;53.90
18105;DHT22;9179;50.968;3.134;2022-07-23T15:38:44;35.00;54.80
18105;DHT22;9179;50.968;3.134;2022-07-23T15:41:11;35.30;55.90
18105;DHT22;9179;50.968;3.134;2022-07-23T15:43:38;34.60;55.80
18105;DHT22;9179;50.968;3.134;2022-07-23T15:46:07;34.60;56.70
18105;DHT22;9179;50.968;3.134;2022-07-23T15:48:35;35.00;56.60
18105;DHT22;9179;50.968;3.134;2022-07-23T15:51:02;35.30;56.40
18105;DHT22;9179;50.968;3.134;2022-07-23T15:53:29;34.00;58.30
18105;DHT22;9179;50.968;3.134;2022-07-23T15:55:56;33.20;59.80